createdAt,value
2022-11-24T00:01:18.478Z,2.11
2022-11-24T00:03:48.492Z,1.98
2022-11-24T00:06:17.627Z,1.83
2022-11-24T00:08:47.211Z,1.99
2022-11-24T00:11:19.181Z,1.96
2022-11-24T00:13:47.925Z,2.15
2022-11-24T00:16:18.647Z,2.01
2022-11-24T00:18:48.407Z,1.85
2022-11-24T00:21:18.134Z,1.90
2022-11-24T00:23:46.883Z,2.01
2022-11-24T00:26:17.029Z,2.06
2022-11-24T00:28:47.950Z,2.17
2022-11-24T00:31:18.497Z,2.03
2022-11-24T00:33:47.748Z,1.88
2022-11-24T00:36:17.095Z,1.88
2022-11-24T00:38:45.640Z,1.95
2022-11-24T00:41:14.383Z,1.83
2022-11-24T00:43:42.509Z,1.92
2022-11-24T00:46:12.642Z,1.96
2022-11-24T00:48:41.003Z,1.90
2022-11-24T00:51:11.229Z,1.95
2022-11-24T00:53:40.046Z,1.83
2022-11-24T00:56:09.756Z,1.92
2022-11-24T00:58:38.779Z,1.97
2022-11-24T01:01:14.467Z,1.92
2022-11-24T01:03:43.178Z,1.99
2022-11-24T01:06:13.377Z,2.04
2022-11-24T01:08:42.204Z,2.34
2022-11-24T01:11:12.922Z,1.96
2022-11-24T01:13:42.302Z,2.00
2022-11-24T01:16:17.455Z,1.99
2022-11-24T01:18:45.912Z,2.01
2022-11-24T01:21:14.493Z,1.93
2022-11-24T01:23:42.964Z,2.02
2022-11-24T01:26:13.047Z,1.99
2022-11-24T01:28:46.606Z,1.85
2022-11-24T01:31:17.534Z,1.90
2022-11-24T01:33:45.697Z,1.84
2022-11-24T01:36:13.866Z,1.78
2022-11-24T01:38:42.160Z,1.84
2022-11-24T01:41:12.728Z,1.88
2022-11-24T01:43:41.497Z,1.86
2022-11-24T01:46:20.472Z,1.91
2022-11-24T01:48:53.934Z,1.94
2022-11-24T01:51:26.175Z,1.91
2022-11-24T01:53:59.096Z,1.86
2022-11-24T01:56:28.555Z,1.90
2022-11-24T01:59:00.055Z,1.92
2022-11-24T02:01:31.530Z,2.03
2022-11-24T02:04:01.814Z,1.92
2022-11-24T02:06:33.300Z,1.83
2022-11-24T02:09:05.792Z,1.93
2022-11-24T02:11:36.716Z,1.92
2022-11-24T02:14:06.379Z,1.84
2022-11-24T02:16:38.432Z,1.86
2022-11-24T02:19:14.969Z,1.71
2022-11-24T02:21:43.120Z,1.84
2022-11-24T02:24:16.550Z,2.06
2022-11-24T02:26:48.244Z,1.96
2022-11-24T02:29:16.849Z,2.07
2022-11-24T02:31:49.189Z,1.96
2022-11-24T02:34:17.325Z,2.04
2022-11-24T02:36:45.932Z,2.10
2022-11-24T02:39:15.646Z,2.04
2022-11-24T02:41:49.319Z,2.11
2022-11-24T02:44:21.087Z,2.13
2022-11-24T02:46:49.246Z,1.92
2022-11-24T02:49:17.362Z,1.96
2022-11-24T02:51:46.040Z,1.88
2022-11-24T02:54:14.371Z,1.85
2022-11-24T02:56:42.492Z,1.81
2022-11-24T02:59:12.032Z,1.94
2022-11-24T03:01:40.250Z,2.10
2022-11-24T03:04:08.486Z,2.05
2022-11-24T03:06:36.643Z,2.16
2022-11-24T03:09:04.862Z,1.94
2022-11-24T03:11:33.229Z,2.10
2022-11-24T03:14:01.438Z,1.92
2022-11-24T03:16:31.127Z,1.73
2022-11-24T03:18:59.824Z,1.87
2022-11-24T03:21:28.412Z,1.97
2022-11-24T03:23:56.678Z,1.74
2022-11-24T03:26:26.454Z,1.79
2022-11-24T03:28:56.178Z,1.79
2022-11-24T03:31:25.101Z,2.02
2022-11-24T03:33:54.646Z,1.94
2022-11-24T03:36:22.831Z,1.67
2022-11-24T03:38:51.014Z,1.81
2022-11-24T03:41:19.180Z,1.81
2022-11-24T03:43:47.307Z,1.93
2022-11-24T03:46:15.599Z,2.03
2022-11-24T03:48:43.933Z,1.97
2022-11-24T03:51:13.450Z,2.03
2022-11-24T03:53:41.575Z,1.75
2022-11-24T03:56:09.980Z,1.69
2022-11-24T03:58:38.127Z,1.85
2022-11-24T04:01:06.590Z,1.97
2022-11-24T04:03:34.730Z,1.94
2022-11-24T04:06:02.885Z,1.96
2022-11-24T04:08:32.644Z,1.72
2022-11-24T04:11:00.956Z,1.77
2022-11-24T04:13:28.173Z,1.84
2022-11-24T04:15:57.478Z,1.72
2022-11-24T04:18:25.654Z,1.70
2022-11-24T04:20:53.820Z,1.85
2022-11-24T04:23:22.112Z,1.85
2022-11-24T04:25:51.648Z,1.50
2022-11-24T04:28:19.815Z,1.43
2022-11-24T04:30:47.992Z,1.45
2022-11-24T04:33:16.154Z,1.64
2022-11-24T04:35:44.336Z,1.47
2022-11-24T04:38:12.483Z,1.66
2022-11-24T04:40:40.632Z,1.65
2022-11-24T04:43:10.260Z,1.82
2022-11-24T04:45:38.445Z,1.82
2022-11-24T04:48:07.155Z,1.80
2022-11-24T04:50:35.286Z,1.63
2022-11-24T04:53:03.422Z,1.73
2022-11-24T04:55:31.591Z,1.79
2022-11-24T04:57:59.954Z,1.85
2022-11-24T05:00:29.737Z,1.87
2022-11-24T05:02:58.266Z,1.84
2022-11-24T05:05:26.503Z,1.66
2022-11-24T05:07:54.673Z,1.62
2022-11-24T05:10:38.136Z,1.56
2022-11-24T05:13:12.748Z,1.41
2022-11-24T05:15:42.838Z,1.52
2022-11-24T05:18:13.604Z,1.80
2022-11-24T05:20:41.776Z,1.54
2022-11-24T05:23:09.920Z,1.54
2022-11-24T05:25:38.228Z,1.43
2022-11-24T05:28:09.904Z,1.37
2022-11-24T05:30:39.720Z,1.26
2022-11-24T05:33:12.129Z,1.34
2022-11-24T05:35:40.425Z,1.41
2022-11-24T05:38:08.643Z,1.57
2022-11-24T05:40:37.140Z,1.22
2022-11-24T05:43:05.426Z,1.37
2022-11-24T05:45:33.566Z,1.37
2022-11-24T05:48:06.095Z,1.53
2022-11-24T05:50:35.979Z,1.64
2022-11-24T05:53:05.420Z,1.35
2022-11-24T05:55:34.162Z,1.55
2022-11-24T05:58:04.979Z,1.60
2022-11-24T06:00:34.135Z,1.58
2022-11-24T06:03:02.664Z,1.52
2022-11-24T06:05:31.139Z,1.61
2022-11-24T06:08:01.476Z,1.51
2022-11-24T06:10:29.666Z,1.61
2022-11-24T06:12:58.133Z,1.31
2022-11-24T06:15:26.299Z,1.17
2022-11-24T06:17:55.838Z,1.29
2022-11-24T06:20:28.333Z,1.37
2022-11-24T06:23:01.952Z,1.36
2022-11-24T06:25:30.360Z,1.26
2022-11-24T06:27:58.508Z,1.23
2022-11-24T06:30:26.649Z,1.22
2022-11-24T06:32:55.975Z,1.25
2022-11-24T06:35:24.156Z,1.22
2022-11-24T06:37:52.286Z,1.41
2022-11-24T06:40:21.769Z,1.22
2022-11-24T06:42:53.146Z,1.33
2022-11-24T06:45:21.302Z,1.34
2022-11-24T06:47:49.456Z,1.23
2022-11-24T06:50:17.664Z,1.42
2022-11-24T06:52:45.820Z,1.32
2022-11-24T06:55:14.114Z,1.37
2022-11-24T06:57:43.580Z,1.40
2022-11-24T07:00:13.016Z,1.36
2022-11-24T07:02:45.638Z,1.48
2022-11-24T07:05:14.507Z,1.41
2022-11-24T07:07:42.953Z,1.30
2022-11-24T07:10:11.210Z,1.53
2022-11-24T07:12:39.348Z,1.45
2022-11-24T07:15:10.465Z,1.43
2022-11-24T07:17:38.832Z,1.49
2022-11-24T07:20:08.767Z,1.44
2022-11-24T07:22:36.962Z,1.50
2022-11-24T07:25:07.428Z,1.52
2022-11-24T07:27:35.598Z,1.65
2022-11-24T07:30:04.460Z,1.64
2022-11-24T07:32:33.995Z,1.63
2022-11-24T07:35:02.134Z,1.70
2022-11-24T07:37:31.902Z,1.79
2022-11-24T07:40:00.189Z,1.75
2022-11-24T07:42:28.690Z,1.67
2022-11-24T07:44:56.804Z,1.79
2022-11-24T07:47:24.964Z,1.75
2022-11-24T07:49:54.561Z,1.58
2022-11-24T07:52:23.425Z,1.70
2022-11-24T07:54:51.568Z,1.43
2022-11-24T07:57:19.727Z,1.40
2022-11-24T07:59:47.845Z,1.47
2022-11-24T08:02:16.279Z,1.54
2022-11-24T08:04:44.415Z,1.78
2022-11-24T08:07:14.174Z,1.80
2022-11-24T08:09:42.343Z,1.98
2022-11-24T08:12:10.611Z,1.67
2022-11-24T08:14:38.736Z,1.83
2022-11-24T08:17:07.175Z,1.92
2022-11-24T08:19:35.526Z,1.96
2022-11-24T08:22:03.680Z,2.07
2022-11-24T08:24:33.498Z,2.04
2022-11-24T08:27:01.890Z,2.02
2022-11-24T08:29:30.775Z,1.96
2022-11-24T08:31:58.982Z,1.95
2022-11-24T08:34:27.387Z,2.26
2022-11-24T08:36:55.504Z,2.18
2022-11-24T08:39:23.743Z,1.95
2022-11-24T08:41:53.220Z,1.84
2022-11-24T08:44:21.497Z,2.16
2022-11-24T08:46:49.943Z,1.95
2022-11-24T08:49:18.933Z,2.20
2022-11-24T08:51:48.613Z,2.16
2022-11-24T08:54:18.682Z,2.12
2022-11-24T08:56:47.193Z,2.02
2022-11-24T08:59:17.106Z,2.29
2022-11-24T09:01:45.625Z,2.43
2022-11-24T09:04:14.272Z,2.16
2022-11-24T09:06:42.444Z,2.01
2022-11-24T09:09:10.936Z,1.79
2022-11-24T09:11:39.117Z,1.75
2022-11-24T09:14:07.403Z,1.51
2022-11-24T09:16:37.276Z,1.84
2022-11-24T09:19:08.026Z,1.87
2022-11-24T09:21:38.900Z,1.93
2022-11-24T09:24:08.329Z,1.91
2022-11-24T09:26:43.059Z,1.91
2022-11-24T09:29:14.662Z,2.11
2022-11-24T09:31:44.398Z,2.33
2022-11-24T09:34:15.459Z,2.46
2022-11-24T09:36:43.927Z,2.20
2022-11-24T09:39:12.489Z,2.30
2022-11-24T09:42:04.461Z,2.34
2022-11-24T09:45:26.295Z,2.23
2022-11-24T09:48:04.203Z,2.37
2022-11-24T09:50:34.761Z,2.61
2022-11-24T09:53:09.135Z,2.62
2022-11-24T09:55:43.340Z,2.48
2022-11-24T09:58:34.988Z,2.46
2022-11-24T10:01:06.385Z,2.45
2022-11-24T10:03:40.302Z,2.57
2022-11-24T10:06:24.868Z,2.75
2022-11-24T10:09:07.734Z,2.77
2022-11-24T10:11:40.541Z,2.81
2022-11-24T10:14:29.147Z,2.76
2022-11-24T10:17:10.104Z,2.71
2022-11-24T10:19:46.819Z,2.68
2022-11-24T10:22:29.495Z,2.62
2022-11-24T10:25:08.701Z,2.71
2022-11-24T10:27:41.089Z,2.79
2022-11-24T10:30:16.195Z,2.81
2022-11-24T10:32:48.203Z,3.10
2022-11-24T10:35:20.629Z,3.06
2022-11-24T10:37:56.969Z,2.97
2022-11-24T10:40:57.713Z,2.75
2022-11-24T10:43:22.504Z,2.99
2022-11-24T10:45:51.164Z,2.89
2022-11-24T10:48:23.521Z,2.86
2022-11-24T10:50:55.234Z,2.98
2022-11-24T10:53:26.557Z,3.09
2022-11-24T10:56:03.718Z,2.98
2022-11-24T10:58:37.671Z,2.84
2022-11-24T11:01:29.389Z,2.96
2022-11-24T11:04:01.538Z,2.78
2022-11-24T11:06:32.314Z,2.83
2022-11-24T11:09:19.642Z,2.68
2022-11-24T11:11:49.219Z,2.79
2022-11-24T11:14:30.981Z,2.71
2022-11-24T11:16:59.513Z,2.61
2022-11-24T11:19:48.531Z,2.80
2022-11-24T11:22:26.117Z,2.92
2022-11-24T11:25:14.821Z,2.69
2022-11-24T11:27:43.408Z,2.89
2022-11-24T11:36:11.834Z,2.88
2022-11-24T11:38:43.176Z,2.58
2022-11-24T11:41:20.193Z,2.71
2022-11-24T11:43:55.646Z,2.87
2022-11-24T11:46:26.040Z,3.04
2022-11-24T11:48:54.464Z,3.08
2022-11-24T11:51:42.525Z,3.08
2022-11-24T11:54:26.363Z,2.86
2022-11-24T11:57:07.921Z,2.77
2022-11-24T11:59:56.307Z,2.98
2022-11-24T12:02:53.443Z,3.03
2022-11-24T12:05:32.003Z,3.15
2022-11-24T12:08:17.561Z,3.07
2022-11-24T12:10:59.746Z,3.00
2022-11-24T12:13:48.291Z,2.93
2022-11-24T12:16:35.670Z,3.07
2022-11-24T12:19:20.651Z,3.11
2022-11-24T12:21:58.857Z,3.05
2022-11-24T12:24:40.327Z,2.95
2022-11-24T12:27:22.606Z,2.88
2022-11-24T12:30:09.873Z,3.33
2022-11-24T12:33:15.447Z,3.46
2022-11-24T12:35:45.680Z,3.63
2022-11-24T12:38:30.141Z,3.64
2022-11-24T12:44:18.291Z,3.26
2022-11-24T12:46:57.197Z,3.20
2022-11-24T12:49:35.308Z,3.28
2022-11-24T12:52:07.617Z,3.39
2022-11-24T12:54:40.898Z,3.31
2022-11-24T12:57:19.369Z,3.16
2022-11-24T12:59:54.563Z,3.51
2022-11-24T13:02:31.004Z,3.30
2022-11-24T13:05:14.389Z,3.37
2022-11-24T13:07:47.181Z,3.44
2022-11-24T13:13:23.159Z,3.53
2022-11-24T13:19:10.024Z,3.21
2022-11-24T13:22:01.229Z,3.34
2022-11-24T13:24:32.061Z,3.42
2022-11-24T13:27:29.622Z,3.59
2022-11-24T13:29:57.837Z,3.38
2022-11-24T13:33:21.654Z,3.42
2022-11-24T13:36:30.973Z,3.41
2022-11-24T13:39:00.529Z,3.39
2022-11-24T13:42:09.248Z,3.30
2022-11-24T13:44:51.752Z,3.35
2022-11-24T13:47:43.756Z,3.03
2022-11-24T13:50:24.743Z,3.00
2022-11-24T13:53:01.244Z,3.19
2022-11-24T13:55:33.590Z,3.20
2022-11-24T13:58:32.448Z,3.11
2022-11-24T14:01:12.103Z,3.00
2022-11-24T14:04:07.143Z,3.20
2022-11-24T14:06:41.236Z,3.31
2022-11-24T14:09:23.332Z,3.02
2022-11-24T14:12:06.461Z,3.22
2022-11-24T14:14:35.099Z,3.30
2022-11-24T14:17:17.001Z,3.22
2022-11-24T14:19:47.151Z,3.03
2022-11-24T14:22:19.753Z,2.91
2022-11-24T14:24:54.255Z,2.76
2022-11-24T14:27:29.268Z,2.81
2022-11-24T14:29:59.689Z,2.90
2022-11-24T14:32:27.851Z,2.99
2022-11-24T14:34:56.920Z,3.10
2022-11-24T14:37:26.705Z,3.22
2022-11-24T14:39:54.844Z,3.20
2022-11-24T14:42:25.327Z,3.05
2022-11-24T14:44:56.505Z,3.13
2022-11-24T14:47:31.735Z,3.16
2022-11-24T14:50:09.829Z,3.12
2022-11-24T14:52:45.601Z,2.88
2022-11-24T14:55:26.094Z,3.09
2022-11-24T14:57:54.608Z,3.13
2022-11-24T15:00:28.942Z,3.17
2022-11-24T15:03:15.984Z,3.10
2022-11-24T15:05:56.460Z,3.13
2022-11-24T15:08:27.984Z,3.23
2022-11-24T15:10:59.004Z,2.99
2022-11-24T15:13:35.005Z,3.09
2022-11-24T15:16:06.113Z,3.04
2022-11-24T15:18:40.517Z,3.00
2022-11-24T15:21:14.117Z,2.79
2022-11-24T15:24:06.176Z,2.99
2022-11-24T15:26:41.353Z,2.88
2022-11-24T15:29:10.951Z,2.82
2022-11-24T15:31:39.453Z,2.88
2022-11-24T15:34:08.276Z,2.62
2022-11-24T15:36:36.454Z,2.79
2022-11-24T15:39:06.182Z,2.85
2022-11-24T15:41:34.733Z,2.74
2022-11-24T15:44:02.888Z,2.83
2022-11-24T15:46:37.701Z,2.76
2022-11-24T15:49:07.239Z,2.91
2022-11-24T15:51:36.976Z,2.61
2022-11-24T15:54:07.235Z,2.63
2022-11-24T15:56:36.805Z,2.86
2022-11-24T15:59:05.564Z,2.74
2022-11-24T16:01:35.215Z,2.65
2022-11-24T16:04:03.618Z,2.66
2022-11-24T16:06:31.824Z,2.76
2022-11-24T16:09:00.047Z,2.69
2022-11-24T16:11:29.508Z,2.69
2022-11-24T16:13:57.914Z,2.64
2022-11-24T16:16:26.166Z,2.79
2022-11-24T16:18:54.488Z,2.76
2022-11-24T16:21:23.344Z,2.67
2022-11-24T16:23:51.848Z,2.86
2022-11-24T16:26:19.964Z,2.82
2022-11-24T16:28:49.379Z,2.91
2022-11-24T16:31:18.981Z,2.78
2022-11-24T16:33:47.354Z,2.70
2022-11-24T16:36:15.627Z,2.84
2022-11-24T16:38:43.804Z,2.82
2022-11-24T16:41:12.420Z,2.86
2022-11-24T16:43:40.685Z,2.67
2022-11-24T16:46:21.350Z,2.90
2022-11-24T16:48:51.567Z,2.92
2022-11-24T16:51:21.398Z,2.96
2022-11-24T16:53:49.721Z,2.62
2022-11-24T16:56:17.873Z,2.84
2022-11-24T16:58:45.998Z,2.79
2022-11-24T17:01:14.813Z,2.81
2022-11-24T17:03:44.528Z,2.76
2022-11-24T17:06:15.730Z,2.82
2022-11-24T17:08:45.113Z,2.52
2022-11-24T17:11:15.318Z,2.37
2022-11-24T17:13:44.310Z,2.29
2022-11-24T17:16:15.213Z,2.63
2022-11-24T17:18:45.373Z,2.78
2022-11-24T17:21:15.524Z,2.61
2022-11-24T17:23:44.102Z,2.70
2022-11-24T17:26:14.198Z,2.53
2022-11-24T17:28:43.067Z,2.65
2022-11-24T17:31:17.908Z,2.81
2022-11-24T17:33:47.465Z,2.76
2022-11-24T17:36:15.808Z,2.85
2022-11-24T17:38:44.023Z,2.89
2022-11-24T17:41:12.517Z,2.83
2022-11-24T17:43:40.973Z,2.87
2022-11-24T17:46:11.514Z,2.70
2022-11-24T17:48:39.714Z,2.80
2022-11-24T17:51:12.838Z,2.87
2022-11-24T17:53:42.172Z,2.82
2022-11-24T17:56:14.330Z,2.63
2022-11-24T17:58:43.543Z,2.77
2022-11-24T18:01:12.591Z,2.65
2022-11-24T18:03:41.695Z,2.69
2022-11-24T18:06:12.729Z,2.73
2022-11-24T18:08:43.064Z,2.61
2022-11-24T18:11:12.915Z,2.82
2022-11-24T18:13:56.623Z,2.47
2022-11-24T18:16:30.604Z,2.73
2022-11-24T18:19:10.065Z,2.87
2022-11-24T18:21:41.420Z,2.78
2022-11-24T18:24:10.656Z,2.69
2022-11-24T18:26:39.148Z,2.86
2022-11-24T18:29:07.844Z,2.94
2022-11-24T18:31:36.319Z,2.89
2022-11-24T18:34:06.008Z,2.91
2022-11-24T18:36:34.934Z,2.80
2022-11-24T18:39:06.014Z,2.81
2022-11-24T18:41:34.875Z,2.89
2022-11-24T18:44:07.496Z,2.69
2022-11-24T18:46:35.661Z,2.95
2022-11-24T18:49:04.333Z,2.71
2022-11-24T18:51:32.455Z,2.98
2022-11-24T18:54:02.208Z,2.99
2022-11-24T18:56:31.709Z,2.97
2022-11-24T18:58:59.828Z,2.99
2022-11-24T19:01:29.495Z,2.96
2022-11-24T19:04:00.198Z,2.90
2022-11-24T19:06:32.348Z,2.91
2022-11-24T19:09:02.988Z,2.87
2022-11-24T19:11:35.298Z,2.90
2022-11-24T19:14:04.999Z,2.82
2022-11-24T19:16:33.651Z,2.73
2022-11-24T19:19:03.037Z,2.60
2022-11-24T19:21:32.561Z,2.80
2022-11-24T19:24:05.250Z,2.87
2022-11-24T19:26:35.791Z,2.87
2022-11-24T19:29:04.732Z,2.92
2022-11-24T19:31:33.942Z,2.99
2022-11-24T19:34:03.103Z,2.88
2022-11-24T19:36:31.897Z,2.95
2022-11-24T19:39:00.508Z,2.97
2022-11-24T19:41:30.697Z,2.87
2022-11-24T19:44:00.627Z,2.73
2022-11-24T19:46:30.154Z,2.77
2022-11-24T19:49:01.365Z,2.81
2022-11-24T19:51:31.592Z,2.92
2022-11-24T19:54:00.333Z,2.68
2022-11-24T19:56:30.615Z,2.81
2022-11-24T19:59:00.085Z,2.81
2022-11-24T20:01:30.484Z,2.82
2022-11-24T20:04:00.737Z,3.02
2022-11-24T20:06:30.976Z,3.06
2022-11-24T20:09:00.465Z,3.04
2022-11-24T20:11:29.461Z,2.91
2022-11-24T20:13:59.871Z,2.90
2022-11-24T20:16:30.395Z,2.88
2022-11-24T20:19:00.448Z,2.94
2022-11-24T20:21:31.182Z,2.95
2022-11-24T20:24:01.301Z,2.78
2022-11-24T20:26:32.252Z,2.79
2022-11-24T20:29:02.480Z,2.83
2022-11-24T20:31:33.277Z,2.68
2022-11-24T20:34:02.569Z,2.58
2022-11-24T20:36:32.489Z,2.62
2022-11-24T20:39:02.603Z,2.49
2022-11-24T20:41:33.704Z,2.55
2022-11-24T20:44:07.236Z,2.64
2022-11-24T20:46:37.894Z,2.60
2022-11-24T20:49:07.993Z,2.68
2022-11-24T20:51:39.053Z,2.67
2022-11-24T20:54:09.273Z,2.59
2022-11-24T20:56:39.804Z,2.52
2022-11-24T20:59:11.509Z,2.66
2022-11-24T21:01:42.577Z,2.79
2022-11-24T21:04:12.931Z,2.86
2022-11-24T21:06:41.227Z,2.89
2022-11-24T21:09:10.195Z,2.88
2022-11-24T21:11:39.136Z,2.94
2022-11-24T21:14:09.556Z,2.89
2022-11-24T21:16:39.240Z,3.01
2022-11-24T21:19:09.600Z,2.82
2022-11-24T21:21:39.588Z,2.87
2022-11-24T21:24:12.344Z,2.51
2022-11-24T21:26:41.757Z,2.43
2022-11-24T21:29:12.777Z,2.61
2022-11-24T21:31:41.169Z,2.79
2022-11-24T21:34:10.336Z,2.85
2022-11-24T21:36:40.750Z,2.93
2022-11-24T21:39:12.649Z,2.99
2022-11-24T21:41:41.527Z,2.94
2022-11-24T21:44:12.059Z,2.90
2022-11-24T21:46:45.057Z,2.89
2022-11-24T21:49:16.256Z,3.04
2022-11-24T21:51:44.388Z,2.99
2022-11-24T21:54:12.514Z,2.99
2022-11-24T21:56:40.699Z,2.97
2022-11-24T21:59:08.914Z,2.98
2022-11-24T22:01:38.736Z,2.89
2022-11-24T22:04:06.940Z,2.90
2022-11-24T22:06:35.313Z,2.96
2022-11-24T22:09:03.495Z,3.00
2022-11-24T22:11:31.622Z,2.98
2022-11-24T22:13:59.744Z,3.04
2022-11-24T22:16:28.095Z,3.00
2022-11-24T22:18:57.625Z,3.03
2022-11-24T22:21:30.076Z,3.05
2022-11-24T22:23:58.363Z,2.88
2022-11-24T22:26:27.748Z,2.89
2022-11-24T22:28:58.522Z,3.04
2022-11-24T22:31:28.665Z,3.06
2022-11-24T22:33:59.568Z,3.12
2022-11-24T22:36:29.185Z,3.15
2022-11-24T22:38:59.015Z,3.08
2022-11-24T22:41:27.192Z,3.11
2022-11-24T22:43:55.401Z,3.06
2022-11-24T22:46:24.862Z,3.15
2022-11-24T22:48:54.543Z,3.13
2022-11-24T22:51:25.793Z,2.98
2022-11-24T22:53:55.611Z,2.71
2022-11-24T22:56:24.860Z,2.98
2022-11-24T22:58:53.130Z,3.10
2022-11-24T23:01:23.394Z,2.88
2022-11-24T23:03:54.303Z,2.70
2022-11-24T23:06:25.266Z,2.89
2022-11-24T23:08:54.062Z,2.96
2022-11-24T23:11:30.698Z,3.19
2022-11-24T23:14:01.288Z,3.06
2022-11-24T23:16:29.953Z,2.88
2022-11-24T23:18:58.511Z,2.98
2022-11-24T23:21:29.884Z,3.17
2022-11-24T23:23:59.989Z,3.10
2022-11-24T23:26:30.152Z,3.27
2022-11-24T23:28:58.701Z,3.22
2022-11-24T23:31:28.957Z,3.32
2022-11-24T23:33:58.604Z,3.35
2022-11-24T23:36:29.226Z,3.21
2022-11-24T23:38:57.620Z,3.19
2022-11-24T23:41:26.833Z,3.11
2022-11-24T23:43:55.063Z,3.18
2022-11-24T23:46:25.083Z,3.22
2022-11-24T23:48:54.813Z,3.19
2022-11-24T23:51:24.325Z,3.31
2022-11-24T23:53:54.820Z,3.28
2022-11-24T23:56:25.028Z,3.19
2022-11-24T23:58:53.370Z,3.25
